sensor_id;sensor_type;location;lat;lon;timestamp;P1;durP1;ratioP1;P2;durP2;ratioP2
11931;SDS011;6025;51.368;6.788;2023-02-19T00:01:24;11.23;;;9.82;;
11931;SDS011;6025;51.368;6.788;2023-02-19T00:06:17;12.43;;;10.50;;
11931;SDS011;6025;51.368;6.788;2023-02-19T00:11:12;11.43;;;10.32;;
11931;SDS011;6025;51.368;6.788;2023-02-19T00:16:05;12.40;;;10.20;;
11931;SDS011;6025;51.368;6.788;2023-02-19T00:20:57;11.65;;;10.15;;
11931;SDS011;6025;51.368;6.788;2023-02-19T00:25:48;11.23;;;10.10;;
11931;SDS011;6025;51.368;6.788;2023-02-19T00:30:41;11.32;;;10.13;;
11931;SDS011;6025;51.368;6.788;2023-02-19T00:35:33;11.95;;;10.75;;
11931;SDS011;6025;51.368;6.788;2023-02-19T00:40:25;11.10;;;9.93;;
11931;SDS011;6025;51.368;6.788;2023-02-19T00:45:17;12.25;;;11.05;;
11931;SDS011;6025;51.368;6.788;2023-02-19T00:50:10;11.25;;;10.05;;
11931;SDS011;6025;51.368;6.788;2023-02-19T00:55:01;12.43;;;11.10;;
11931;SDS011;6025;51.368;6.788;2023-02-19T00:59:53;13.98;;;10.95;;
11931;SDS011;6025;51.368;6.788;2023-02-19T01:04:44;14.27;;;10.90;;
11931;SDS011;6025;51.368;6.788;2023-02-19T01:09:37;13.95;;;12.25;;
11931;SDS011;6025;51.368;6.788;2023-02-19T01:14:29;15.48;;;11.70;;
11931;SDS011;6025;51.368;6.788;2023-02-19T01:19:20;15.00;;;12.35;;
11931;SDS011;6025;51.368;6.788;2023-02-19T01:24:12;17.67;;;12.32;;
11931;SDS011;6025;51.368;6.788;2023-02-19T01:29:06;15.52;;;12.48;;
11931;SDS011;6025;51.368;6.788;2023-02-19T01:33:58;15.32;;;11.27;;
11931;SDS011;6025;51.368;6.788;2023-02-19T01:38:50;16.38;;;11.75;;
11931;SDS011;6025;51.368;6.788;2023-02-19T01:48:54;16.92;;;12.50;;
11931;SDS011;6025;51.368;6.788;2023-02-19T01:53:48;16.58;;;11.90;;
11931;SDS011;6025;51.368;6.788;2023-02-19T01:58:42;16.17;;;12.38;;
11931;SDS011;6025;51.368;6.788;2023-02-19T02:03:35;16.90;;;13.18;;
11931;SDS011;6025;51.368;6.788;2023-02-19T02:08:29;17.85;;;13.23;;
11931;SDS011;6025;51.368;6.788;2023-02-19T02:13:39;15.82;;;12.13;;
11931;SDS011;6025;51.368;6.788;2023-02-19T02:18:34;19.20;;;12.85;;
11931;SDS011;6025;51.368;6.788;2023-02-19T02:23:37;18.70;;;13.15;;
11931;SDS011;6025;51.368;6.788;2023-02-19T02:28:35;21.08;;;13.18;;
11931;SDS011;6025;51.368;6.788;2023-02-19T02:33:40;22.42;;;14.93;;
11931;SDS011;6025;51.368;6.788;2023-02-19T02:38:34;21.65;;;15.18;;
11931;SDS011;6025;51.368;6.788;2023-02-19T02:43:28;23.67;;;15.30;;
11931;SDS011;6025;51.368;6.788;2023-02-19T02:48:22;22.23;;;14.63;;
11931;SDS011;6025;51.368;6.788;2023-02-19T02:53:19;21.92;;;14.07;;
11931;SDS011;6025;51.368;6.788;2023-02-19T02:58:29;25.48;;;15.23;;
11931;SDS011;6025;51.368;6.788;2023-02-19T03:03:22;22.52;;;15.02;;
11931;SDS011;6025;51.368;6.788;2023-02-19T03:08:16;27.88;;;17.13;;
11931;SDS011;6025;51.368;6.788;2023-02-19T03:13:14;26.20;;;16.83;;
11931;SDS011;6025;51.368;6.788;2023-02-19T03:18:26;24.25;;;15.65;;
11931;SDS011;6025;51.368;6.788;2023-02-19T03:23:39;23.27;;;15.35;;
11931;SDS011;6025;51.368;6.788;2023-02-19T03:28:49;29.45;;;19.05;;
11931;SDS011;6025;51.368;6.788;2023-02-19T03:33:59;23.25;;;15.73;;
11931;SDS011;6025;51.368;6.788;2023-02-19T03:38:55;21.38;;;13.10;;
11931;SDS011;6025;51.368;6.788;2023-02-19T03:43:51;19.63;;;12.93;;
11931;SDS011;6025;51.368;6.788;2023-02-19T03:48:45;21.35;;;13.38;;
11931;SDS011;6025;51.368;6.788;2023-02-19T03:53:44;24.10;;;13.90;;
11931;SDS011;6025;51.368;6.788;2023-02-19T03:58:42;17.58;;;11.65;;
11931;SDS011;6025;51.368;6.788;2023-02-19T04:03:39;16.08;;;11.55;;
11931;SDS011;6025;51.368;6.788;2023-02-19T04:08:32;20.52;;;12.65;;
11931;SDS011;6025;51.368;6.788;2023-02-19T04:13:25;22.98;;;13.82;;
11931;SDS011;6025;51.368;6.788;2023-02-19T04:18:19;21.63;;;12.10;;
11931;SDS011;6025;51.368;6.788;2023-02-19T04:23:15;24.50;;;12.73;;
11931;SDS011;6025;51.368;6.788;2023-02-19T04:28:07;21.25;;;14.02;;
11931;SDS011;6025;51.368;6.788;2023-02-19T04:32:59;25.35;;;14.63;;
11931;SDS011;6025;51.368;6.788;2023-02-19T04:37:52;26.40;;;16.00;;
11931;SDS011;6025;51.368;6.788;2023-02-19T04:42:43;27.65;;;18.60;;
11931;SDS011;6025;51.368;6.788;2023-02-19T04:47:35;20.60;;;13.18;;
11931;SDS011;6025;51.368;6.788;2023-02-19T04:52:26;15.80;;;9.43;;
11931;SDS011;6025;51.368;6.788;2023-02-19T04:57:19;17.60;;;8.90;;
11931;SDS011;6025;51.368;6.788;2023-02-19T05:02:11;14.93;;;9.15;;
11931;SDS011;6025;51.368;6.788;2023-02-19T05:07:02;14.82;;;8.68;;
11931;SDS011;6025;51.368;6.788;2023-02-19T05:11:54;13.80;;;8.68;;
11931;SDS011;6025;51.368;6.788;2023-02-19T05:16:47;17.45;;;9.85;;
11931;SDS011;6025;51.368;6.788;2023-02-19T05:21:38;16.65;;;9.48;;
11931;SDS011;6025;51.368;6.788;2023-02-19T05:26:30;12.90;;;8.20;;
11931;SDS011;6025;51.368;6.788;2023-02-19T05:31:21;17.13;;;7.95;;
11931;SDS011;6025;51.368;6.788;2023-02-19T05:36:15;15.68;;;8.38;;
11931;SDS011;6025;51.368;6.788;2023-02-19T05:41:08;14.15;;;7.78;;
11931;SDS011;6025;51.368;6.788;2023-02-19T05:46:00;18.17;;;9.05;;
11931;SDS011;6025;51.368;6.788;2023-02-19T05:50:52;18.33;;;8.23;;
11931;SDS011;6025;51.368;6.788;2023-02-19T05:55:45;18.58;;;9.05;;
11931;SDS011;6025;51.368;6.788;2023-02-19T06:00:36;16.83;;;9.98;;
11931;SDS011;6025;51.368;6.788;2023-02-19T06:05:28;22.90;;;11.40;;
11931;SDS011;6025;51.368;6.788;2023-02-19T06:10:19;18.25;;;10.57;;
11931;SDS011;6025;51.368;6.788;2023-02-19T06:15:12;25.10;;;13.95;;
11931;SDS011;6025;51.368;6.788;2023-02-19T06:20:04;18.02;;;10.05;;
11931;SDS011;6025;51.368;6.788;2023-02-19T06:24:56;21.75;;;13.32;;
11931;SDS011;6025;51.368;6.788;2023-02-19T06:29:47;25.50;;;12.95;;
11931;SDS011;6025;51.368;6.788;2023-02-19T06:34:40;17.77;;;10.93;;
11931;SDS011;6025;51.368;6.788;2023-02-19T06:39:32;17.25;;;10.07;;
11931;SDS011;6025;51.368;6.788;2023-02-19T06:44:23;21.02;;;9.32;;
11931;SDS011;6025;51.368;6.788;2023-02-19T06:49:15;15.47;;;8.37;;
11931;SDS011;6025;51.368;6.788;2023-02-19T06:54:08;20.65;;;8.85;;
11931;SDS011;6025;51.368;6.788;2023-02-19T06:59:00;21.65;;;9.70;;
11931;SDS011;6025;51.368;6.788;2023-02-19T07:03:53;23.38;;;14.45;;
11931;SDS011;6025;51.368;6.788;2023-02-19T07:08:44;24.75;;;12.73;;
11931;SDS011;6025;51.368;6.788;2023-02-19T07:13:37;18.83;;;11.50;;
11931;SDS011;6025;51.368;6.788;2023-02-19T07:18:29;21.25;;;11.30;;
11931;SDS011;6025;51.368;6.788;2023-02-19T07:23:21;18.65;;;10.52;;
11931;SDS011;6025;51.368;6.788;2023-02-19T07:28:12;20.80;;;10.77;;
11931;SDS011;6025;51.368;6.788;2023-02-19T07:33:06;22.02;;;10.50;;
11931;SDS011;6025;51.368;6.788;2023-02-19T07:37:58;22.30;;;10.83;;
11931;SDS011;6025;51.368;6.788;2023-02-19T07:42:49;19.38;;;9.75;;
11931;SDS011;6025;51.368;6.788;2023-02-19T07:47:41;16.93;;;8.00;;
11931;SDS011;6025;51.368;6.788;2023-02-19T07:52:34;14.40;;;7.68;;
11931;SDS011;6025;51.368;6.788;2023-02-19T07:57:26;11.50;;;6.68;;
11931;SDS011;6025;51.368;6.788;2023-02-19T08:02:18;13.70;;;6.75;;
11931;SDS011;6025;51.368;6.788;2023-02-19T08:07:29;12.25;;;7.18;;
11931;SDS011;6025;51.368;6.788;2023-02-19T08:12:23;14.82;;;6.75;;
11931;SDS011;6025;51.368;6.788;2023-02-19T08:17:32;12.82;;;7.20;;
11931;SDS011;6025;51.368;6.788;2023-02-19T08:22:23;12.35;;;7.40;;
11931;SDS011;6025;51.368;6.788;2023-02-19T08:27:15;13.57;;;7.63;;
11931;SDS011;6025;51.368;6.788;2023-02-19T08:32:08;12.85;;;6.68;;
11931;SDS011;6025;51.368;6.788;2023-02-19T08:36:59;17.15;;;8.98;;
11931;SDS011;6025;51.368;6.788;2023-02-19T08:41:51;19.70;;;8.73;;
11931;SDS011;6025;51.368;6.788;2023-02-19T08:46:43;15.35;;;8.00;;
11931;SDS011;6025;51.368;6.788;2023-02-19T08:51:35;21.27;;;10.02;;
11931;SDS011;6025;51.368;6.788;2023-02-19T08:56:27;19.42;;;8.23;;
11931;SDS011;6025;51.368;6.788;2023-02-19T09:01:18;16.35;;;7.13;;
11931;SDS011;6025;51.368;6.788;2023-02-19T09:06:12;12.82;;;6.60;;
11931;SDS011;6025;51.368;6.788;2023-02-19T09:11:06;16.05;;;6.97;;
11931;SDS011;6025;51.368;6.788;2023-02-19T09:15:58;10.38;;;6.22;;
11931;SDS011;6025;51.368;6.788;2023-02-19T09:20:49;10.63;;;6.35;;
11931;SDS011;6025;51.368;6.788;2023-02-19T09:25:41;15.73;;;7.20;;
11931;SDS011;6025;51.368;6.788;2023-02-19T09:30:33;13.63;;;6.75;;
11931;SDS011;6025;51.368;6.788;2023-02-19T09:35:25;11.80;;;6.45;;
11931;SDS011;6025;51.368;6.788;2023-02-19T09:40:17;11.82;;;5.85;;
11931;SDS011;6025;51.368;6.788;2023-02-19T09:45:11;8.98;;;5.97;;
11931;SDS011;6025;51.368;6.788;2023-02-19T09:50:11;10.23;;;5.03;;
11931;SDS011;6025;51.368;6.788;2023-02-19T09:55:08;6.67;;;3.90;;
11931;SDS011;6025;51.368;6.788;2023-02-19T10:00:04;9.65;;;5.18;;
11931;SDS011;6025;51.368;6.788;2023-02-19T10:04:58;8.05;;;5.43;;
11931;SDS011;6025;51.368;6.788;2023-02-19T10:09:53;9.68;;;5.28;;
11931;SDS011;6025;51.368;6.788;2023-02-19T10:14:47;10.10;;;5.28;;
11931;SDS011;6025;51.368;6.788;2023-02-19T10:19:40;8.75;;;5.00;;
11931;SDS011;6025;51.368;6.788;2023-02-19T10:24:32;8.90;;;5.40;;
11931;SDS011;6025;51.368;6.788;2023-02-19T10:29:24;8.77;;;5.20;;
11931;SDS011;6025;51.368;6.788;2023-02-19T10:34:18;7.30;;;4.88;;
11931;SDS011;6025;51.368;6.788;2023-02-19T10:39:20;8.43;;;5.10;;
11931;SDS011;6025;51.368;6.788;2023-02-19T10:44:30;6.55;;;4.75;;
11931;SDS011;6025;51.368;6.788;2023-02-19T10:49:26;8.48;;;5.25;;
11931;SDS011;6025;51.368;6.788;2023-02-19T10:54:20;6.88;;;5.00;;
11931;SDS011;6025;51.368;6.788;2023-02-19T10:59:22;7.70;;;5.15;;
11931;SDS011;6025;51.368;6.788;2023-02-19T11:04:17;7.78;;;4.47;;
11931;SDS011;6025;51.368;6.788;2023-02-19T11:09:15;6.50;;;4.32;;
11931;SDS011;6025;51.368;6.788;2023-02-19T11:14:14;6.50;;;4.63;;
11931;SDS011;6025;51.368;6.788;2023-02-19T11:19:20;8.07;;;4.80;;
11931;SDS011;6025;51.368;6.788;2023-02-19T11:24:14;6.22;;;4.90;;
11931;SDS011;6025;51.368;6.788;2023-02-19T11:29:16;5.28;;;4.47;;
11931;SDS011;6025;51.368;6.788;2023-02-19T11:34:24;7.90;;;4.20;;
11931;SDS011;6025;51.368;6.788;2023-02-19T11:39:19;6.45;;;4.60;;
11931;SDS011;6025;51.368;6.788;2023-02-19T11:44:16;6.78;;;4.30;;
11931;SDS011;6025;51.368;6.788;2023-02-19T11:49:21;3.42;;;2.65;;
11931;SDS011;6025;51.368;6.788;2023-02-19T11:54:22;2.70;;;2.15;;
11931;SDS011;6025;51.368;6.788;2023-02-19T11:59:22;3.40;;;1.88;;
11931;SDS011;6025;51.368;6.788;2023-02-19T12:09:46;2.38;;;1.40;;
11931;SDS011;6025;51.368;6.788;2023-02-19T12:20:04;2.75;;;1.58;;
11931;SDS011;6025;51.368;6.788;2023-02-19T12:25:16;2.10;;;1.70;;
11931;SDS011;6025;51.368;6.788;2023-02-19T12:30:25;3.22;;;2.05;;
11931;SDS011;6025;51.368;6.788;2023-02-19T12:40:45;2.92;;;2.00;;
11931;SDS011;6025;51.368;6.788;2023-02-19T12:45:45;2.55;;;2.20;;
11931;SDS011;6025;51.368;6.788;2023-02-19T12:50:38;6.15;;;2.50;;
11931;SDS011;6025;51.368;6.788;2023-02-19T12:55:33;2.92;;;2.30;;
11931;SDS011;6025;51.368;6.788;2023-02-19T13:00:28;3.65;;;2.65;;
11931;SDS011;6025;51.368;6.788;2023-02-19T13:05:23;4.00;;;2.47;;
11931;SDS011;6025;51.368;6.788;2023-02-19T13:10:24;3.38;;;2.70;;
11931;SDS011;6025;51.368;6.788;2023-02-19T13:15:19;4.55;;;3.15;;
11931;SDS011;6025;51.368;6.788;2023-02-19T13:20:24;4.95;;;3.58;;
11931;SDS011;6025;51.368;6.788;2023-02-19T13:25:18;6.60;;;3.83;;
11931;SDS011;6025;51.368;6.788;2023-02-19T13:30:20;5.28;;;3.50;;
11931;SDS011;6025;51.368;6.788;2023-02-19T13:35:23;6.00;;;3.90;;
11931;SDS011;6025;51.368;6.788;2023-02-19T13:40:26;7.25;;;3.97;;
11931;SDS011;6025;51.368;6.788;2023-02-19T13:45:22;6.47;;;4.05;;
11931;SDS011;6025;51.368;6.788;2023-02-19T13:50:17;5.07;;;4.20;;
11931;SDS011;6025;51.368;6.788;2023-02-19T14:00:49;7.88;;;4.55;;
11931;SDS011;6025;51.368;6.788;2023-02-19T14:05:58;6.63;;;4.85;;
11931;SDS011;6025;51.368;6.788;2023-02-19T14:10:52;7.03;;;6.13;;
11931;SDS011;6025;51.368;6.788;2023-02-19T14:15:49;11.38;;;7.40;;
11931;SDS011;6025;51.368;6.788;2023-02-19T14:20:41;8.40;;;6.85;;
11931;SDS011;6025;51.368;6.788;2023-02-19T14:25:43;9.50;;;7.78;;
11931;SDS011;6025;51.368;6.788;2023-02-19T14:30:39;11.20;;;7.55;;
11931;SDS011;6025;51.368;6.788;2023-02-19T14:35:38;11.38;;;8.40;;
11931;SDS011;6025;51.368;6.788;2023-02-19T14:40:31;9.43;;;8.43;;
11931;SDS011;6025;51.368;6.788;2023-02-19T14:45:25;10.05;;;8.30;;
11931;SDS011;6025;51.368;6.788;2023-02-19T14:50:19;10.73;;;8.88;;
11931;SDS011;6025;51.368;6.788;2023-02-19T14:55:19;10.02;;;7.82;;
11931;SDS011;6025;51.368;6.788;2023-02-19T15:00:20;9.20;;;7.72;;
11931;SDS011;6025;51.368;6.788;2023-02-19T15:05:14;9.75;;;7.97;;
11931;SDS011;6025;51.368;6.788;2023-02-19T15:10:06;9.52;;;8.02;;
11931;SDS011;6025;51.368;6.788;2023-02-19T15:14:59;10.23;;;7.90;;
11931;SDS011;6025;51.368;6.788;2023-02-19T15:19:52;9.02;;;7.72;;
11931;SDS011;6025;51.368;6.788;2023-02-19T15:24:44;10.00;;;7.78;;
11931;SDS011;6025;51.368;6.788;2023-02-19T15:29:36;11.43;;;9.45;;
11931;SDS011;6025;51.368;6.788;2023-02-19T15:34:36;13.65;;;9.27;;
11931;SDS011;6025;51.368;6.788;2023-02-19T15:39:32;8.98;;;7.63;;
11931;SDS011;6025;51.368;6.788;2023-02-19T15:44:33;7.90;;;6.82;;
11931;SDS011;6025;51.368;6.788;2023-02-19T15:49:33;7.53;;;6.72;;
11931;SDS011;6025;51.368;6.788;2023-02-19T15:54:32;8.38;;;5.90;;
11931;SDS011;6025;51.368;6.788;2023-02-19T15:59:25;6.93;;;4.60;;
11931;SDS011;6025;51.368;6.788;2023-02-19T16:04:20;5.13;;;4.35;;
11931;SDS011;6025;51.368;6.788;2023-02-19T16:09:18;5.40;;;4.60;;
11931;SDS011;6025;51.368;6.788;2023-02-19T16:14:26;7.68;;;4.55;;
11931;SDS011;6025;51.368;6.788;2023-02-19T16:19:20;8.95;;;5.88;;
11931;SDS011;6025;51.368;6.788;2023-02-19T16:24:12;8.27;;;5.80;;
11931;SDS011;6025;51.368;6.788;2023-02-19T16:29:13;3.97;;;3.55;;
11931;SDS011;6025;51.368;6.788;2023-02-19T16:34:14;5.63;;;2.85;;
11931;SDS011;6025;51.368;6.788;2023-02-19T16:39:22;2.65;;;2.28;;
11931;SDS011;6025;51.368;6.788;2023-02-19T16:49:24;4.50;;;2.20;;
11931;SDS011;6025;51.368;6.788;2023-02-19T16:54:16;5.53;;;2.53;;
11931;SDS011;6025;51.368;6.788;2023-02-19T16:59:07;4.13;;;2.70;;
11931;SDS011;6025;51.368;6.788;2023-02-19T17:04:01;5.75;;;3.63;;
11931;SDS011;6025;51.368;6.788;2023-02-19T17:08:54;4.73;;;3.50;;
11931;SDS011;6025;51.368;6.788;2023-02-19T17:13:46;5.65;;;3.42;;
11931;SDS011;6025;51.368;6.788;2023-02-19T17:18:37;5.10;;;3.90;;
11931;SDS011;6025;51.368;6.788;2023-02-19T17:23:30;7.87;;;5.27;;
11931;SDS011;6025;51.368;6.788;2023-02-19T17:28:21;8.93;;;5.63;;
11931;SDS011;6025;51.368;6.788;2023-02-19T17:33:13;7.63;;;5.87;;
11931;SDS011;6025;51.368;6.788;2023-02-19T17:38:04;8.17;;;5.90;;
11931;SDS011;6025;51.368;6.788;2023-02-19T17:42:59;7.97;;;5.70;;
11931;SDS011;6025;51.368;6.788;2023-02-19T17:47:51;8.83;;;5.57;;
11931;SDS011;6025;51.368;6.788;2023-02-19T17:52:43;5.70;;;4.60;;
11931;SDS011;6025;51.368;6.788;2023-02-19T17:57:34;6.47;;;5.03;;
11931;SDS011;6025;51.368;6.788;2023-02-19T18:02:27;6.40;;;5.80;;
11931;SDS011;6025;51.368;6.788;2023-02-19T18:07:18;6.97;;;5.57;;
11931;SDS011;6025;51.368;6.788;2023-02-19T18:12:10;8.17;;;6.27;;
11931;SDS011;6025;51.368;6.788;2023-02-19T18:17:01;7.60;;;6.73;;
11931;SDS011;6025;51.368;6.788;2023-02-19T18:21:54;8.53;;;7.07;;
11931;SDS011;6025;51.368;6.788;2023-02-19T18:26:46;6.17;;;5.57;;
11931;SDS011;6025;51.368;6.788;2023-02-19T18:31:37;6.70;;;5.93;;
11931;SDS011;6025;51.368;6.788;2023-02-19T18:36:29;6.27;;;5.37;;
11931;SDS011;6025;51.368;6.788;2023-02-19T18:41:22;7.23;;;6.40;;
11931;SDS011;6025;51.368;6.788;2023-02-19T18:46:13;6.53;;;5.93;;
11931;SDS011;6025;51.368;6.788;2023-02-19T18:51:07;7.57;;;6.70;;
11931;SDS011;6025;51.368;6.788;2023-02-19T18:55:59;7.67;;;6.77;;
11931;SDS011;6025;51.368;6.788;2023-02-19T19:00:55;8.43;;;6.83;;
11931;SDS011;6025;51.368;6.788;2023-02-19T19:05:48;7.47;;;6.73;;
11931;SDS011;6025;51.368;6.788;2023-02-19T19:10:39;7.80;;;6.87;;
11931;SDS011;6025;51.368;6.788;2023-02-19T19:15:31;7.30;;;5.80;;
11931;SDS011;6025;51.368;6.788;2023-02-19T19:20:24;6.00;;;4.93;;
11931;SDS011;6025;51.368;6.788;2023-02-19T19:25:15;6.07;;;5.47;;
11931;SDS011;6025;51.368;6.788;2023-02-19T19:30:07;5.07;;;4.50;;
11931;SDS011;6025;51.368;6.788;2023-02-19T19:34:59;4.43;;;4.00;;
11931;SDS011;6025;51.368;6.788;2023-02-19T19:39:52;5.17;;;4.00;;
11931;SDS011;6025;51.368;6.788;2023-02-19T19:44:44;3.87;;;3.47;;
11931;SDS011;6025;51.368;6.788;2023-02-19T19:49:35;4.73;;;4.07;;
11931;SDS011;6025;51.368;6.788;2023-02-19T19:54:27;6.63;;;5.00;;
11931;SDS011;6025;51.368;6.788;2023-02-19T19:59:20;6.50;;;5.90;;
11931;SDS011;6025;51.368;6.788;2023-02-19T20:04:12;4.83;;;3.90;;
11931;SDS011;6025;51.368;6.788;2023-02-19T20:09:03;4.27;;;3.57;;
11931;SDS011;6025;51.368;6.788;2023-02-19T20:13:55;5.03;;;3.80;;
11931;SDS011;6025;51.368;6.788;2023-02-19T20:18:48;5.20;;;3.90;;
11931;SDS011;6025;51.368;6.788;2023-02-19T20:23:39;5.77;;;3.27;;
11931;SDS011;6025;51.368;6.788;2023-02-19T20:28:31;3.53;;;2.60;;
11931;SDS011;6025;51.368;6.788;2023-02-19T20:33:23;3.97;;;2.30;;
11931;SDS011;6025;51.368;6.788;2023-02-19T20:38:16;2.37;;;2.17;;
11931;SDS011;6025;51.368;6.788;2023-02-19T20:43:07;3.73;;;2.13;;
11931;SDS011;6025;51.368;6.788;2023-02-19T20:47:59;2.97;;;2.20;;
11931;SDS011;6025;51.368;6.788;2023-02-19T20:52:50;2.97;;;2.20;;
11931;SDS011;6025;51.368;6.788;2023-02-19T20:57:43;2.10;;;1.90;;
11931;SDS011;6025;51.368;6.788;2023-02-19T21:02:35;2.27;;;1.70;;
11931;SDS011;6025;51.368;6.788;2023-02-19T21:07:27;2.80;;;2.00;;
11931;SDS011;6025;51.368;6.788;2023-02-19T21:12:18;3.13;;;1.73;;
11931;SDS011;6025;51.368;6.788;2023-02-19T21:17:11;3.13;;;2.20;;
11931;SDS011;6025;51.368;6.788;2023-02-19T21:22:03;3.63;;;2.30;;
11931;SDS011;6025;51.368;6.788;2023-02-19T21:26:55;3.13;;;2.07;;
11931;SDS011;6025;51.368;6.788;2023-02-19T21:31:47;3.10;;;1.80;;
11931;SDS011;6025;51.368;6.788;2023-02-19T21:36:40;2.30;;;1.77;;
11931;SDS011;6025;51.368;6.788;2023-02-19T21:41:32;2.07;;;1.87;;
11931;SDS011;6025;51.368;6.788;2023-02-19T21:46:24;3.50;;;1.93;;
11931;SDS011;6025;51.368;6.788;2023-02-19T21:51:15;2.70;;;1.90;;
11931;SDS011;6025;51.368;6.788;2023-02-19T21:56:09;1.83;;;1.70;;
11931;SDS011;6025;51.368;6.788;2023-02-19T22:01:00;2.70;;;1.77;;
11931;SDS011;6025;51.368;6.788;2023-02-19T22:05:52;2.10;;;1.80;;
11931;SDS011;6025;51.368;6.788;2023-02-19T22:10:44;2.53;;;2.10;;
11931;SDS011;6025;51.368;6.788;2023-02-19T22:15:37;2.03;;;1.77;;
11931;SDS011;6025;51.368;6.788;2023-02-19T22:20:28;2.40;;;1.70;;
11931;SDS011;6025;51.368;6.788;2023-02-19T22:25:20;3.80;;;1.73;;
11931;SDS011;6025;51.368;6.788;2023-02-19T22:30:12;2.60;;;1.57;;
11931;SDS011;6025;51.368;6.788;2023-02-19T22:35:05;2.03;;;1.50;;
11931;SDS011;6025;51.368;6.788;2023-02-19T22:39:57;2.00;;;1.40;;
11931;SDS011;6025;51.368;6.788;2023-02-19T22:44:48;2.97;;;1.70;;
11931;SDS011;6025;51.368;6.788;2023-02-19T22:49:40;4.67;;;1.70;;
11931;SDS011;6025;51.368;6.788;2023-02-19T22:54:33;2.47;;;1.40;;
11931;SDS011;6025;51.368;6.788;2023-02-19T22:59:24;2.40;;;1.50;;
11931;SDS011;6025;51.368;6.788;2023-02-19T23:04:16;2.57;;;1.57;;
11931;SDS011;6025;51.368;6.788;2023-02-19T23:09:08;1.67;;;1.47;;
11931;SDS011;6025;51.368;6.788;2023-02-19T23:14:05;2.23;;;1.50;;
11931;SDS011;6025;51.368;6.788;2023-02-19T23:18:57;1.83;;;1.63;;
11931;SDS011;6025;51.368;6.788;2023-02-19T23:23:49;3.23;;;1.80;;
11931;SDS011;6025;51.368;6.788;2023-02-19T23:28:41;2.00;;;1.70;;
11931;SDS011;6025;51.368;6.788;2023-02-19T23:33:34;2.20;;;2.00;;
11931;SDS011;6025;51.368;6.788;2023-02-19T23:38:26;2.43;;;1.93;;
11931;SDS011;6025;51.368;6.788;2023-02-19T23:43:17;2.60;;;2.10;;
11931;SDS011;6025;51.368;6.788;2023-02-19T23:48:10;4.70;;;2.50;;
11931;SDS011;6025;51.368;6.788;2023-02-19T23:53:02;3.80;;;2.53;;
11931;SDS011;6025;51.368;6.788;2023-02-19T23:57:54;3.57;;;2.60;;
